Date,TemperatureHighF,TemperatureAvgF,TemperatureLowF,DewpointHighF,DewpointAvgF,DewpointLowF,HumidityHigh,HumidityAvg,HumidityLow,PressureMaxIn,PressureMinIn,WindSpeedMaxMPH,WindSpeedAvgMPH,GustSpeedMaxMPH,PrecipitationSumIn
2013-1-1,33.1,22.7,9.0,26.2,14.6,0.7,93,72,52,29.75,29.52,25,4,25,0.01
2013-1-2,14.9,8.1,1.4,1.8,-1.8,-5.8,76,63,51,29.93,29.73,27,7,27,0.00
2013-1-3,18.0,7.5,-4.0,99.9,16.7,-6.2,82,69,54,30.02,29.90,14,2,17,0.00
2013-1-4,32.0,17.1,-4.2,99.9,36.2,-3.6,89,82,73,29.90,29.65,13,0,15,0.00
2013-1-5,32.3,23.5,2.7,26.7,13.9,-0.6,85,68,41,30.27,29.65,35,4,38,0.00
2013-1-6,28.9,14.8,0.2,25.3,12.2,-2.7,94,89,84,30.24,29.88,6,0,6,0.00
2013-1-7,20.1,11.0,-6.4,99.9,25.5,-3.9,92,77,49,30.40,29.97,15,2,20,0.00
2013-1-8,42.9,27.8,-4.8,99.9,27.3,-2.6,100,81,58,30.38,30.13,14,1,17,0.13
2013-1-9,39.3,28.1,10.3,38.1,24.8,8.0,97,88,65,30.39,29.78,11,0,13,0.07
2013-1-10,42.3,36.7,28.2,34.0,27.5,20.2,88,69,54,30.45,29.78,31,8,33,0.00
2013-1-11,36.7,28.7,20.3,23.0,19.4,15.4,83,69,46,30.50,30.27,13,2,13,0.00
2013-1-12,39.8,34.5,30.3,32.5,28.8,21.4,92,80,69,30.27,30.08,9,0,9,0.00
2013-1-13,44.7,39.8,34.5,44.4,39.0,32.4,99,97,92,30.12,29.91,8,0,11,0.01
2013-1-14,52.7,44.6,36.1,49.8,40.7,26.1,99,87,60,30.15,29.80,16,2,19,0.01
2013-1-15,37.3,30.9,23.4,26.2,21.8,19.5,86,70,51,30.28,30.14,21,2,21,0.00
2013-1-16,34.7,29.4,23.4,33.9,27.3,19.8,98,92,80,30.27,29.74,15,0,15,0.08
2013-1-17,40.4,30.3,11.3,36.7,22.7,-2.4,98,75,43,30.11,29.68,20,4,24,0.32
2013-1-18,13.0,7.4,-0.1,99.9,-2.3,-8.8,82,59,38,30.36,30.09,21,4,27,0.00
2013-1-19,33.2,23.6,8.0,30.4,20.5,0.0,96,88,60,30.35,29.92,5,0,6,0.01
2013-1-20,48.6,36.6,23.4,42.5,29.0,4.2,99,76,43,29.92,29.39,23,3,30,0.02
2013-1-21,23.1,16.6,11.8,11.4,2.1,-2.5,84,53,36,30.00,29.74,25,4,32,0.00
2013-1-22,15.2,9.3,-0.8,99.9,1.2,-6.8,86,61,45,29.92,29.76,18,4,20,0.00
2013-1-23,6.4,1.7,-3.6,-6.8,-42.1,-99.9,58,48,37,30.00,29.90,25,5,25,0.00
2013-1-24,9.4,1.9,-3.9,-7.9,-43.4,-99.9,60,51,38,29.98,29.80,27,6,27,0.00
2013-1-25,19.2,9.0,0.8,2.5,-2.3,-9.8,75,59,46,30.09,29.97,22,5,29,0.00
2013-1-26,18.6,10.9,5.3,1.3,-1.6,-3.3,69,56,41,30.05,29.90,20,4,20,0.00
2013-1-27,23.4,14.3,6.7,7.4,2.1,-2.7,69,58,47,30.33,30.01,27,6,31,0.00
2013-1-28,25.9,16.7,6.2,11.8,2.7,-2.4,73,56,29,30.36,30.06,12,2,13,0.00
2013-1-29,36.9,23.7,8.8,21.4,14.3,5.2,86,68,46,30.22,30.05,10,1,11,0.00
2013-1-30,52.4,42.1,26.1,51.9,40.6,20.3,99,95,78,30.17,29.44,24,4,24,0.28
2013-1-31,53.3,46.4,32.7,52.6,42.5,18.6,99,87,55,29.45,28.81,39,6,39,0.46
2013-2-1,33.0,24.1,11.9,18.6,7.8,0.7,62,50,39,29.96,29.33,23,5,25,0.00
2013-2-2,25.5,16.3,7.7,18.0,4.7,-1.3,94,61,38,30.17,29.96,14,2,18,0.00
2013-2-3,26.9,22.2,19.5,21.0,18.4,16.5,92,85,76,30.06,29.61,17,3,20,0.02
2013-2-4,26.6,20.7,13.7,16.8,8.6,-6.9,85,61,36,29.77,29.50,28,6,32,0.00
2013-2-5,21.7,12.2,6.7,2.5,-2.5,-6.3,79,52,31,30.02,29.77,16,2,17,0.00
2013-2-6,34.1,20.5,5.7,30.4,13.0,0.2,92,73,46,30.19,29.88,17,2,18,0.04
2013-2-7,16.1,6.6,-4.7,99.9,6.5,-99.9,81,54,31,30.60,30.19,19,4,21,0.00
2013-2-8,18.6,9.6,-4.0,99.9,12.1,-47.1,92,76,59,30.61,29.94,21,3,25,0.00
2013-2-9,17.4,14.0,9.7,14.7,11.4,7.2,91,89,83,29.95,29.62,44,12,54,0.00
2013-2-10,32.5,20.2,6.8,11.6,8.4,2.1,84,61,39,30.32,29.95,25,6,33,0.00
2013-2-11,41.4,20.7,-1.8,99.9,32.8,-2.9,100,86,67,30.32,29.51,18,1,18,0.40
2013-2-12,43.4,38.4,34.0,39.5,33.5,30.3,98,83,67,29.68,29.43,18,3,19,0.04
2013-2-13,44.5,36.7,31.2,30.3,27.6,24.3,87,70,48,29.75,29.66,18,2,18,0.00
2013-2-14,39.7,31.2,20.3,26.1,21.2,17.5,92,68,43,29.98,29.68,14,3,18,0.00
2013-2-15,43.5,32.9,18.4,37.6,29.3,16.3,98,87,69,30.00,29.92,18,2,21,0.00
2013-2-16,41.5,34.0,28.2,38.3,31.9,26.7,100,92,78,29.92,29.71,19,3,22,0.00
2013-2-17,28.2,23.2,18.4,27.5,21.0,14.9,100,91,85,29.71,28.89,34,12,42,0.00
2013-2-18,29.1,21.6,15.7,14.8,7.6,3.4,85,55,44,29.82,29.16,32,11,43,0.00
2013-2-19,45.2,31.4,20.6,37.3,16.5,4.0,95,56,31,30.04,29.73,15,3,21,0.00
2013-2-20,43.8,37.5,29.8,43.2,31.6,19.2,98,80,63,29.74,29.35,20,4,29,0.00
2013-2-21,34.4,29.6,24.7,30.4,21.8,15.9,93,72,61,30.04,29.52,22,6,30,0.00
2013-2-22,39.3,31.4,21.1,27.4,22.1,18.1,89,69,49,30.36,30.04,22,4,22,0.00
2013-2-23,33.1,27.3,19.9,25.6,22.7,17.8,93,83,72,30.36,30.06,12,1,14,0.00
2013-2-24,32.7,29.7,27.8,28.1,25.2,21.5,93,83,75,30.06,29.78,13,2,16,0.00
2013-2-25,38.6,27.5,18.5,21.5,16.5,9.9,84,65,32,30.21,29.84,18,3,19,0.02
2013-2-26,43.9,27.5,12.6,25.0,18.5,9.1,92,71,38,30.34,30.21,12,1,12,0.00
2013-2-27,40.5,31.0,19.5,32.0,24.8,17.5,95,79,57,30.29,29.80,23,2,26,0.00
2013-2-28,37.9,34.9,32.2,37.1,34.0,30.8,98,97,95,29.80,29.50,21,3,21,0.18
2013-3-1,34.1,32.0,30.3,32.6,30.8,28.9,97,95,92,29.58,29.48,16,3,20,0.02
2013-3-2,38.7,34.3,30.5,35.9,32.5,28.7,100,93,86,29.56,29.51,18,4,19,0.02
2013-3-3,43.9,37.4,33.7,36.8,34.3,32.8,97,89,71,29.54,29.42,12,2,12,0.00
2013-3-4,36.4,34.0,32.8,34.3,32.5,31.1,97,95,90,29.61,29.37,15,3,18,0.00
2013-3-5,42.1,36.5,33.4,37.7,34.2,32.3,97,92,80,30.12,29.61,19,4,19,0.00
2013-3-6,37.4,34.3,31.5,33.1,28.5,24.8,95,80,68,30.28,30.12,21,4,23,0.00
2013-3-7,38.8,34.2,32.0,27.2,25.9,24.1,78,72,61,30.24,30.07,26,5,34,0.00
2013-3-8,47.4,36.0,29.9,26.2,24.9,21.6,80,66,37,30.18,30.03,32,7,32,0.01
2013-3-9,41.9,32.8,27.6,27.4,24.9,22.2,87,73,55,30.38,30.17,21,4,23,0.00
2013-3-10,40.7,31.7,27.8,28.8,25.8,23.6,92,79,58,30.42,30.29,7,1,11,0.00
2013-3-11,43.4,38.1,30.9,37.5,34.6,28.8,95,87,77,30.31,30.17,17,2,18,0.00
2013-3-12,50.7,44.6,38.9,46.8,42.2,37.5,98,91,79,30.19,29.86,22,3,22,0.20
2013-3-13,49.3,45.4,36.1,48.7,44.1,30.3,98,95,80,29.86,29.56,28,4,30,1.73
2013-3-14,44.4,35.3,28.5,31.5,27.4,22.8,93,74,46,29.66,29.56,20,2,23,0.00
2013-3-15,34.7,26.7,20.4,22.7,14.3,8.9,89,61,36,29.69,29.55,23,5,29,0.00
2013-3-16,37.1,27.9,19.7,18.0,13.3,10.0,85,56,35,29.85,29.58,16,3,18,0.00
2013-3-17,31.8,23.3,15.2,12.1,5.3,-3.3,82,48,27,30.24,29.85,25,5,30,0.00
2013-3-18,33.1,21.3,6.7,12.9,2.1,-4.1,77,45,26,30.38,30.23,24,3,27,0.00
2013-3-19,28.0,24.7,20.7,24.8,18.2,7.4,95,78,50,30.31,29.63,21,3,21,0.00
2013-3-20,32.8,25.7,19.1,28.4,22.7,17.3,95,88,77,29.66,29.48,26,4,28,0.19
2013-3-21,39.7,29.4,15.9,27.6,22.8,14.0,96,78,50,29.75,29.56,11,1,13,0.07
2013-3-22,42.1,31.7,21.2,26.0,20.0,15.2,88,64,36,29.57,29.48,18,4,23,0.00
2013-3-23,41.4,33.0,24.6,28.3,22.3,16.9,78,65,49,29.53,29.36,24,5,26,0.00
2013-3-24,45.9,36.4,26.9,28.7,26.0,23.8,89,68,47,29.72,29.49,21,4,24,0.00
2013-3-25,45.2,36.3,24.2,33.1,28.0,22.1,95,74,49,29.74,29.55,16,2,18,0.00
2013-3-26,49.1,38.0,28.0,33.1,27.4,22.7,82,67,41,29.62,29.48,23,5,24,0.00
2013-3-27,40.4,36.5,33.4,38.7,34.1,28.8,96,91,80,29.80,29.61,20,4,20,0.26
2013-3-28,50.2,39.8,29.0,35.4,30.8,25.7,90,73,42,29.89,29.80,13,2,14,0.00
2013-3-29,53.7,43.7,29.3,39.6,33.1,26.5,93,68,45,29.93,29.86,15,2,17,0.00
2013-3-30,54.9,40.5,27.8,33.3,24.3,14.4,93,58,22,30.03,29.91,16,2,19,0.00
2013-3-31,53.4,39.0,24.9,31.6,22.5,13.6,94,56,25,30.09,29.90,12,1,18,0.00
2013-4-1,48.2,40.8,32.2,45.6,38.9,30.6,100,93,81,29.90,29.43,21,2,23,1.12
2013-4-2,38.2,32.3,26.9,32.2,16.5,9.9,90,54,33,29.74,29.56,22,4,23,0.00
2013-4-3,41.2,32.4,24.9,22.1,17.4,12.9,84,55,37,29.90,29.71,24,6,30,0.00
2013-4-4,50.6,37.6,29.7,33.5,16.9,7.1,89,46,19,30.10,29.90,21,5,30,0.00
2013-4-5,50.2,41.6,31.8,37.2,33.3,27.6,94,73,55,29.95,29.62,16,2,21,0.00
2013-4-6,39.9,33.0,23.2,27.6,13.3,2.8,69,46,22,30.31,29.69,31,7,33,0.00
2013-4-7,41.9,32.5,18.6,36.6,23.9,11.7,89,71,45,30.33,29.98,21,3,27,0.01
2013-4-8,58.9,47.1,31.5,42.0,37.4,29.1,92,72,46,30.12,29.85,20,4,23,0.00
2013-4-9,41.5,36.5,29.6,40.7,35.3,27.8,97,96,91,30.14,29.90,15,1,16,0.27
2013-4-10,55.1,44.8,37.1,46.1,41.2,36.4,98,89,62,29.97,29.85,11,1,16,0.02
2013-4-11,49.4,41.9,30.9,41.0,22.5,10.7,96,50,24,30.16,29.83,23,5,24,0.00
2013-4-12,41.8,33.5,26.7,31.8,23.9,14.2,97,70,43,30.25,29.93,12,1,12,0.04
2013-4-13,43.2,36.7,32.8,38.1,34.6,31.8,100,92,81,29.94,29.76,14,2,18,0.34
2013-4-14,46.2,38.3,31.6,43.4,37.0,30.5,98,95,85,30.12,29.88,12,1,13,0.44
2013-4-15,47.6,39.1,29.4,40.5,36.1,28.4,98,90,71,30.42,30.12,13,1,16,0.00
2013-4-16,49.4,40.4,28.9,44.9,37.8,27.9,99,91,73,30.42,29.90,21,3,24,0.18
2013-4-17,60.4,49.7,33.2,47.3,33.5,19.4,97,58,30,30.34,29.89,29,6,29,0.00
2013-4-18,48.7,38.9,25.4,37.3,28.2,21.4,89,68,38,30.46,30.15,15,2,16,0.00
2013-4-19,60.4,51.3,43.8,55.0,48.4,35.9,98,90,72,30.16,29.71,18,3,26,0.00
2013-4-20,56.8,50.7,43.4,53.9,47.2,30.6,100,88,60,30.08,29.59,18,3,20,0.33
2013-4-21,51.8,41.5,28.3,31.0,24.6,16.2,81,54,27,30.68,30.08,23,4,23,0.00
2013-4-22,48.2,37.1,24.0,34.1,25.7,19.9,93,66,34,30.81,30.68,14,1,15,0.00
2013-4-23,45.4,38.0,26.6,40.8,33.8,25.0,96,86,67,30.69,30.22,11,1,13,0.13
2013-4-24,53.2,46.0,41.7,52.6,45.2,40.9,99,97,96,30.22,29.76,12,2,13,0.88
2013-4-25,63.3,51.4,41.8,51.6,42.5,32.2,99,76,36,30.25,29.81,17,3,19,0.15
2013-4-26,56.7,44.5,32.0,38.8,33.9,29.4,93,69,42,30.41,30.25,14,2,15,0.00
2013-4-27,63.2,45.8,28.4,39.3,31.6,24.8,97,64,24,30.42,30.25,14,1,16,0.01
2013-4-28,61.2,46.2,29.0,43.7,34.5,27.5,96,68,34,30.34,30.23,13,1,14,0.00
2013-4-29,66.8,49.1,29.5,41.3,34.0,23.0,98,63,21,30.29,30.21,12,1,16,0.00
2013-4-30,69.0,51.1,31.5,42.9,34.1,23.3,100,60,19,30.36,30.25,14,1,16,0.00
2013-5-1,67.5,50.5,31.7,43.9,35.1,30.1,97,62,27,30.45,30.36,13,1,14,0.00
2013-5-2,64.5,49.1,35.3,44.8,37.2,30.8,90,67,30,30.53,30.41,14,1,15,0.00
2013-5-3,67.7,49.7,37.5,45.3,39.8,34.9,91,71,39,30.54,30.36,14,2,16,0.00
2013-5-4,58.4,44.5,31.3,41.8,35.6,29.6,97,73,45,30.40,30.30,16,2,16,0.00
2013-5-5,63.4,47.0,29.0,42.3,36.5,27.7,97,71,41,30.32,30.23,15,1,18,0.00
2013-5-6,63.4,46.8,29.1,48.1,39.7,28.0,97,79,53,30.27,30.17,20,2,21,0.00
2013-5-7,72.9,56.4,42.6,53.2,48.7,41.8,98,79,42,30.17,30.08,16,2,18,0.00
2013-5-8,71.8,56.7,46.3,60.5,52.6,45.4,98,87,66,30.27,30.16,15,2,16,0.00
2013-5-9,57.4,52.1,48.8,56.5,51.3,47.6,100,97,95,30.17,29.92,11,1,12,0.20
2013-5-10,65.5,55.8,48.5,60.7,53.5,47.6,99,92,78,29.97,29.89,13,1,14,0.02
2013-5-11,55.8,50.7,46.6,55.1,50.0,46.0,99,98,95,29.97,29.72,14,2,19,0.15
2013-5-12,57.5,54.0,48.5,57.2,53.5,46.5,99,98,93,29.72,29.52,19,1,30,0.34
2013-5-13,58.2,48.9,39.1,46.7,40.2,35.0,99,75,45,29.98,29.64,18,2,20,0.09
2013-5-14,56.2,47.3,37.9,40.6,36.8,31.0,95,69,41,29.98,29.88,11,1,13,0.00
2013-5-15,64.3,49.6,31.0,46.2,35.5,28.1,96,63,29,29.97,29.71,22,3,22,0.20
2013-5-16,71.5,56.8,46.8,58.6,51.3,45.7,98,84,49,29.73,29.52,17,2,22,0.22
2013-5-17,59.9,50.6,41.0,46.6,41.5,37.3,96,73,47,30.17,29.73,24,4,24,0.00
2013-5-18,60.2,45.9,34.9,42.5,37.9,33.6,97,76,42,30.35,30.16,15,2,19,0.00
2013-5-19,56.9,46.7,33.1,46.7,40.9,31.8,100,82,57,30.39,30.26,14,2,16,0.00
2013-5-20,51.7,49.8,48.0,51.1,49.0,46.8,99,97,95,30.27,29.94,21,2,21,0.66
2013-5-21,51.5,48.7,45.9,50.3,47.7,44.9,100,97,94,30.07,29.99,11,0,11,0.04
2013-5-22,52.7,49.6,47.6,51.7,48.9,47.0,100,98,94,30.05,29.94,13,2,20,0.51
2013-5-23,62.1,54.0,46.4,59.5,53.2,45.9,100,97,90,29.97,29.82,13,2,17,0.01
2013-5-24,59.7,57.0,51.4,59.2,56.4,50.2,99,98,96,29.84,29.69,23,3,26,2.38
2013-5-25,51.4,50.1,47.7,50.9,49.4,47.4,100,98,96,29.80,29.71,20,3,22,0.66
2013-5-26,50.6,48.2,45.2,48.1,46.4,42.6,100,94,83,29.87,29.64,15,2,17,0.15
2013-5-27,62.4,51.3,41.1,43.9,41.1,38.4,97,71,45,30.13,29.87,16,3,20,0.01
2013-5-28,72.2,54.6,34.3,50.5,40.9,33.2,98,65,32,30.23,30.13,13,1,17,0.00
2013-5-29,52.6,48.3,39.5,52.0,47.3,38.3,99,97,89,30.24,29.99,11,1,12,0.51
2013-5-30,82.8,65.5,50.4,67.0,58.9,50.1,100,82,48,29.99,29.92,13,1,17,0.01
2013-5-31,89.5,73.7,53.3,68.7,62.3,52.4,98,71,44,30.01,29.84,13,1,17,0.00
2013-6-1,92.5,75.9,59.5,68.9,64.1,55.8,97,70,44,29.90,29.79,15,1,15,0.00
2013-6-2,84.2,68.1,57.1,70.3,61.1,55.0,94,79,58,29.80,29.70,15,2,22,0.00
2013-6-3,67.2,61.3,56.7,64.9,59.3,55.5,97,94,83,29.81,29.69,8,1,12,0.04
2013-6-4,68.0,59.5,48.3,56.2,47.4,40.9,98,68,41,29.96,29.72,19,3,25,0.00
2013-6-5,72.2,58.5,41.7,48.5,42.7,36.2,96,60,29,30.12,29.96,19,2,20,0.00
2013-6-6,71.0,58.4,43.1,51.3,45.1,34.2,97,66,34,30.20,30.12,10,1,12,0.00
2013-6-7,62.8,55.8,49.4,54.0,49.8,40.6,97,82,45,30.17,30.00,12,1,12,0.18
2013-6-8,62.7,56.2,51.7,59.7,54.7,50.8,98,95,86,30.00,29.62,19,2,19,1.82
2013-6-9,67.0,57.6,47.7,57.5,52.9,46.7,98,85,69,30.10,29.93,11,1,13,0.00
2013-6-10,72.8,60.9,50.1,57.8,53.3,49.1,99,78,52,30.18,30.04,10,1,12,0.00
2013-6-11,55.4,54.0,52.5,54.5,52.8,51.0,100,96,90,30.04,29.54,14,2,18,1.04
2013-6-12,59.4,55.1,51.9,57.5,54.0,51.3,100,96,92,29.66,29.46,19,4,23,0.56
2013-6-13,71.5,59.5,52.1,56.7,53.1,50.4,97,81,52,29.78,29.66,12,2,14,0.02
2013-6-14,63.8,55.9,50.1,53.3,50.6,47.6,96,83,65,29.72,29.65,9,1,9,0.00
2013-6-15,77.0,62.3,42.8,51.0,46.3,41.6,99,61,31,29.83,29.68,20,3,21,0.00
2013-6-16,78.7,64.4,54.4,55.2,51.1,46.5,93,65,37,29.87,29.72,13,1,15,0.00
2013-6-17,79.8,64.5,55.2,61.5,57.8,53.1,97,81,48,29.81,29.69,19,1,19,0.02
2013-6-18,73.5,63.1,52.3,57.8,52.8,48.1,98,72,42,29.91,29.79,18,1,18,0.00
2013-6-19,75.8,63.3,48.5,54.3,47.9,39.8,92,62,29,30.09,29.89,20,2,20,0.00
2013-6-20,76.8,61.6,43.7,56.9,48.9,42.3,97,68,33,30.21,30.09,14,1,19,0.00
2013-6-21,82.2,65.8,49.6,60.7,53.8,48.2,98,69,36,30.20,30.12,12,1,14,0.00
2013-6-22,78.3,65.5,52.7,64.9,57.9,50.8,96,78,52,30.18,30.08,0,0,0,0.00
2013-6-23,74.8,63.2,52.9,67.4,59.5,51.9,98,89,70,30.12,29.93,12,1,12,0.00
2013-6-24,87.8,74.4,59.9,73.2,67.4,57.9,99,81,57,29.93,29.75,15,1,18,0.01
2013-6-25,92.1,77.3,62.9,71.1,67.3,61.4,97,74,47,29.80,29.66,13,0,16,0.03
2013-6-26,73.5,65.3,58.2,70.3,63.4,55.4,98,94,86,29.87,29.66,9,1,11,0.04
2013-6-27,59.7,56.7,55.1,56.2,54.7,52.9,98,93,87,29.91,29.85,8,1,10,0.03
2013-6-28,62.1,58.9,55.4,61.7,58.4,54.8,100,98,98,29.89,29.61,14,2,14,1.25
2013-6-29,67.0,62.0,59.5,66.7,61.5,59.1,100,99,95,29.72,29.59,12,1,15,0.05
2013-6-30,77.9,66.5,60.5,72.1,64.4,60.1,100,94,79,29.93,29.71,11,1,12,0.00
2013-7-1,80.3,67.9,59.0,72.8,65.2,58.4,99,92,75,30.10,29.92,8,0,8,0.02
2013-7-2,67.0,60.1,56.8,66.6,58.5,55.1,99,95,87,30.22,30.09,10,1,13,0.47
2013-7-3,82.7,67.0,57.1,72.3,63.0,56.5,99,88,68,30.18,30.07,7,0,8,0.00
2013-7-4,91.4,76.7,59.4,73.9,67.3,58.6,99,76,47,30.12,30.01,15,1,16,0.00
2013-7-5,92.1,80.9,67.4,73.0,70.4,66.4,98,73,46,30.04,29.94,18,2,18,0.00
2013-7-6,89.0,79.7,69.3,74.8,70.6,64.3,98,76,56,29.97,29.85,19,2,19,0.00
2013-7-7,92.8,81.5,68.6,73.5,67.1,63.3,86,63,42,29.89,29.82,14,2,15,0.00
2013-7-8,77.5,69.0,59.1,68.8,61.9,52.9,95,79,58,30.06,29.88,9,1,12,0.35
2013-7-9,67.7,62.1,57.3,65.4,60.6,56.3,98,95,90,30.13,30.06,6,0,8,0.01
2013-7-10,64.7,61.4,59.4,62.0,60.1,58.8,99,96,89,30.09,29.79,9,1,11,0.03
2013-7-11,81.8,69.9,61.1,74.0,67.4,60.7,100,93,75,29.93,29.74,13,1,14,0.06
2013-7-12,82.8,70.0,59.1,66.6,60.2,55.8,98,73,47,30.19,29.93,12,2,17,0.00
2013-7-13,85.5,70.4,54.1,66.1,59.4,53.0,98,72,40,30.29,30.19,12,1,13,0.00
2013-7-14,89.5,73.5,55.4,69.9,63.4,54.1,97,73,48,30.26,30.13,10,0,10,0.00
2013-7-15,95.5,79.0,61.2,70.9,65.9,59.9,98,69,34,30.14,29.99,11,1,13,0.00
2013-7-16,91.9,77.3,63.8,70.8,65.9,59.1,89,70,47,30.16,30.02,11,1,13,0.00
2013-7-17,78.7,70.1,60.6,67.0,62.4,57.1,95,78,58,30.19,29.86,14,2,17,0.21
2013-7-18,88.8,75.7,65.0,70.5,64.6,57.4,98,72,42,29.98,29.85,12,1,14,0.04
2013-7-19,86.3,72.7,64.2,76.3,68.7,62.2,98,88,67,29.96,29.58,15,1,18,0.27
2013-7-20,91.0,79.5,70.0,74.6,69.5,62.3,91,73,53,29.73,29.55,16,1,22,0.00
2013-7-21,79.1,67.8,55.7,61.9,58.1,53.8,94,73,46,30.02,29.72,10,1,14,0.00
2013-7-22,76.0,64.0,51.0,62.9,56.0,49.8,98,78,51,30.05,29.95,11,0,13,0.00
2013-7-23,66.4,62.6,55.5,65.8,61.9,54.0,99,98,95,29.95,29.51,8,0,9,1.50
2013-7-24,82.3,70.8,61.8,72.7,66.1,53.7,99,86,71,29.92,29.52,15,1,17,0.00
2013-7-25,76.0,64.7,55.1,62.3,56.4,51.3,94,76,51,30.12,29.92,17,2,19,0.02
2013-7-26,67.2,64.9,62.3,66.4,64.2,60.6,99,98,94,30.09,29.81,10,0,12,2.45
2013-7-27,82.5,69.5,60.3,69.2,64.0,59.4,99,84,59,30.04,29.78,11,2,16,0.00
2013-7-28,75.9,65.0,56.7,68.0,62.3,55.8,99,92,73,30.07,30.00,11,0,12,0.27
2013-7-29,75.0,66.3,61.8,69.0,64.0,61.0,98,93,79,30.07,29.97,11,1,13,0.02
2013-7-30,82.3,68.0,61.2,69.1,63.8,59.1,99,88,51,30.05,29.95,10,0,11,0.04
2013-7-31,83.3,68.4,53.4,62.7,58.2,52.5,99,73,43,30.06,29.99,15,1,19,0.00
2013-8-1,77.3,65.3,53.4,66.2,60.2,52.4,98,85,61,30.04,29.92,12,1,16,0.00
2013-8-2,67.4,63.8,58.6,66.4,63.1,57.9,99,98,95,29.92,29.75,8,0,8,0.58
2013-8-3,76.7,64.0,57.6,67.5,61.5,56.8,99,93,66,29.80,29.68,16,0,21,0.12
2013-8-4,80.1,66.1,52.4,63.5,58.7,51.8,99,80,51,29.74,29.68,10,0,13,0.00
2013-8-5,72.3,65.6,57.7,58.3,54.8,50.3,86,69,58,29.96,29.79,17,2,19,0.00
2013-8-6,80.2,64.3,46.1,59.9,53.3,45.0,98,70,47,30.13,29.96,8,0,11,0.00
2013-8-7,79.3,63.7,49.0,58.9,53.2,47.8,98,73,43,30.19,30.12,1,0,1,0.00
2013-8-8,65.8,61.5,55.5,63.1,60.2,54.6,99,96,87,30.15,30.03,1,0,2,0.10
2013-8-9,67.5,65.4,63.6,67.1,65.0,63.2,99,99,98,30.04,29.65,20,1,20,2.21
2013-8-10,81.4,71.2,59.6,69.9,60.4,50.0,99,73,40,29.93,29.65,20,2,20,0.00
2013-8-11,78.4,65.0,48.1,58.4,53.8,47.0,98,70,43,29.98,29.90,17,1,17,0.00
2013-8-12,81.8,67.3,55.6,63.3,57.6,53.5,96,74,44,29.96,29.87,12,1,14,0.00
2013-8-13,75.5,62.4,51.8,68.1,60.2,50.9,98,93,77,29.89,29.70,11,0,12,0.00
2013-8-14,73.8,64.8,59.2,66.7,60.9,50.9,99,88,64,29.77,29.56,15,1,19,0.00
2013-8-15,77.1,64.6,51.6,56.7,53.4,49.4,93,69,45,30.05,29.77,13,2,14,0.00
2013-8-16,77.6,63.3,49.2,61.9,55.1,48.1,98,77,48,30.16,30.04,12,0,13,0.00
2013-8-17,78.9,63.9,49.7,62.6,55.4,48.8,98,78,44,30.24,30.16,13,1,14,0.00
2013-8-18,78.8,63.8,47.7,62.2,55.9,46.8,99,79,46,30.24,30.01,1,0,1,0.01
2013-8-19,85.1,68.5,50.8,68.2,60.4,49.9,98,78,50,30.01,29.80,13,0,15,0.00
2013-8-20,83.8,71.7,60.7,70.0,64.3,59.3,97,79,58,30.04,29.89,0,0,0,0.00
2013-8-21,88.2,71.7,56.0,69.6,63.0,55.1,98,76,49,30.09,29.96,0,0,0,0.00
2013-8-22,87.0,73.7,57.6,70.0,64.4,56.1,95,75,49,29.96,29.72,0,0,0,0.00
2013-8-23,76.2,66.8,50.5,66.2,58.5,48.6,98,77,46,30.11,29.71,13,0,14,0.00
2013-8-24,78.5,61.5,47.0,56.4,49.1,43.5,98,70,31,30.27,30.11,13,1,18,0.00
2013-8-25,81.2,63.2,46.4,58.3,51.8,45.3,98,71,34,30.31,30.14,7,0,11,0.00
2013-8-26,73.3,62.3,52.3,66.4,58.9,50.1,98,89,70,30.14,29.83,1,0,2,0.02
2013-8-27,83.9,69.9,57.1,70.2,63.9,56.2,98,83,60,29.89,29.81,0,0,0,0.00
2013-8-28,77.5,64.1,58.2,67.7,61.1,57.0,98,91,70,29.92,29.87,0,0,0,0.00
2013-9-11,67.3,66.5,65.6,66.4,65.4,64.7,97,97,96,29.90,29.86,1,0,1,0.02
2013-9-12,79.3,68.1,64.3,71.8,66.2,63.6,99,94,77,29.97,29.66,13,1,14,0.08
2013-9-13,67.5,64.0,59.8,66.6,63.4,58.8,100,98,96,29.66,29.55,15,1,15,0.40
2013-9-14,71.1,61.3,53.3,62.2,57.8,50.9,99,89,67,29.97,29.63,13,0,15,0.01
2013-9-15,69.0,57.0,46.5,54.4,50.8,45.6,99,82,55,30.08,29.97,11,0,12,0.00
2013-9-16,65.0,53.6,41.9,56.0,49.7,35.6,98,87,70,30.20,29.93,19,2,21,0.00
2013-9-17,64.7,48.6,35.4,49.7,40.6,33.3,96,77,48,30.32,30.19,19,2,19,0.00
2013-9-18,72.7,56.0,36.9,52.9,46.2,36.1,97,74,39,30.25,30.05,11,1,14,0.01
2013-9-19,77.6,57.6,40.3,57.7,49.0,39.5,99,77,40,30.07,29.96,11,1,11,0.00
2013-9-20,77.5,58.8,46.8,59.8,52.1,45.7,98,81,49,30.07,29.99,10,1,11,0.00
2013-9-21,65.8,56.5,46.7,60.2,55.0,45.8,99,95,81,30.05,29.83,13,1,18,0.01
2013-9-22,66.3,62.0,54.5,64.6,60.9,52.4,100,96,93,29.83,29.59,25,3,29,0.39
2013-9-23,57.3,52.2,47.4,52.4,45.7,42.6,93,79,65,29.83,29.65,25,4,25,0.00
2013-9-24,52.6,49.7,46.7,47.5,45.0,42.1,93,84,74,29.82,29.75,13,3,15,0.05
2013-9-25,58.9,52.3,47.5,49.7,47.4,45.1,92,84,69,29.91,29.77,14,3,16,0.00
2013-9-26,61.2,54.3,46.3,51.7,49.2,44.7,95,84,68,30.07,29.90,17,3,18,0.00
2013-9-27,72.0,58.5,48.2,56.5,52.0,47.1,96,81,52,30.22,30.06,13,2,18,0.00
2013-9-28,72.5,55.1,41.3,57.1,49.2,40.5,99,83,51,30.32,30.21,8,0,8,0.01
2013-9-29,70.5,51.5,36.2,56.2,44.7,35.4,99,81,41,30.24,30.10,8,0,12,0.00
2013-9-30,67.5,52.6,39.8,55.3,49.2,38.6,99,89,55,30.12,29.94,8,0,11,0.00
2013-10-1,74.2,59.5,50.3,61.2,53.0,49.1,97,81,51,29.95,29.76,16,1,16,0.00
2013-10-2,78.9,62.2,45.4,61.8,52.7,44.5,99,75,51,29.81,29.66,12,1,14,0.01
2013-10-3,73.5,59.6,45.0,52.5,47.3,43.3,97,67,40,30.01,29.81,18,2,20,0.00
2013-10-4,70.3,54.1,40.7,50.7,45.7,39.3,97,76,43,30.07,29.97,14,1,16,0.00
2013-10-5,65.1,51.4,39.9,48.3,43.8,38.1,96,78,45,30.14,30.04,7,0,11,0.00
2013-10-6,61.9,49.6,39.0,45.3,39.3,34.3,94,70,39,30.28,30.14,13,1,14,0.02
2013-10-7,62.6,55.9,45.1,62.0,54.5,42.5,100,95,89,30.25,29.81,21,3,24,0.07
2013-10-8,63.1,54.4,36.4,62.6,47.5,35.1,99,80,48,30.36,29.79,21,3,23,0.67
2013-10-9,63.4,45.6,33.9,44.6,38.7,32.7,98,80,45,30.46,30.34,11,0,14,0.01
2013-10-10,67.8,46.9,31.4,50.8,40.6,30.4,99,82,40,30.34,30.17,7,0,11,0.00
2013-10-11,77.0,53.2,38.0,57.1,47.2,36.9,99,83,42,30.20,30.08,6,0,6,0.00
2013-10-12,59.7,50.0,36.4,50.5,44.8,35.3,98,84,56,30.42,30.20,10,1,16,0.00
2013-10-13,60.4,44.4,33.6,46.8,39.3,32.8,99,84,55,30.45,30.36,9,0,11,0.01
2013-10-14,63.7,47.6,31.4,49.9,42.5,30.5,99,84,58,30.36,30.22,11,0,11,0.01
2013-10-15,64.5,54.6,43.9,55.2,50.2,42.8,97,86,68,30.26,30.19,9,0,11,0.00
2013-10-16,57.8,52.7,44.3,54.9,51.6,43.4,99,96,86,30.22,29.86,12,0,14,0.20
2013-10-17,60.0,55.0,51.9,57.0,54.0,51.3,99,97,89,29.86,29.74,7,0,9,0.01
2013-10-18,62.2,54.2,46.2,60.5,51.9,44.8,100,92,73,29.77,29.54,21,1,23,0.29
2013-10-19,64.8,51.7,41.5,47.3,44.2,39.6,96,78,46,29.89,29.77,15,0,15,0.00
2013-10-20,63.2,53.6,44.9,57.1,44.6,32.3,99,75,38,29.88,29.64,18,2,21,0.05
2013-10-21,60.1,48.1,38.7,44.6,36.7,30.6,95,68,36,30.02,29.88,18,1,18,0.00
2013-10-22,58.7,50.6,39.3,55.0,48.3,37.9,99,92,80,30.00,29.66,18,2,23,0.01
2013-10-23,55.9,43.8,31.0,41.8,36.9,30.0,98,79,45,29.74,29.54,9,0,9,0.00
2013-10-24,50.8,43.5,31.5,39.7,32.0,26.3,96,66,39,29.73,29.54,17,2,18,0.00
2013-10-25,53.3,42.8,33.1,35.4,32.2,28.0,91,67,45,30.02,29.73,14,2,19,0.00
2013-10-26,50.8,40.0,28.0,41.0,32.9,25.4,97,78,44,30.07,29.86,12,1,15,0.09
2013-10-27,52.9,43.9,38.3,45.5,39.7,31.6,98,86,62,29.92,29.74,12,1,15,0.10
2013-10-28,53.2,41.4,31.3,41.9,32.7,28.2,92,72,53,30.29,29.92,17,2,21,0.00
2013-10-29,47.4,33.2,23.4,29.6,24.5,20.2,95,74,36,30.42,30.28,10,1,12,0.01
2013-10-30,48.6,31.7,21.2,31.7,23.8,18.8,100,77,32,30.33,30.12,10,0,11,0.00
2013-10-31,56.9,40.0,21.6,56.0,36.9,20.1,98,89,66,30.24,29.78,16,2,20,0.37
2013-11-1,62.3,59.2,56.9,61.0,57.4,53.4,100,94,82,29.78,29.32,25,4,29,0.64
2013-11-2,64.3,52.8,39.6,53.6,46.7,38.5,98,81,51,29.73,29.47,15,1,16,0.00
2013-11-3,48.5,36.8,28.9,43.2,25.3,18.9,87,64,41,30.34,29.71,23,4,23,0.04
2013-11-4,41.6,30.8,23.6,22.3,20.1,18.3,88,66,43,30.69,30.34,19,3,21,0.00
2013-11-5,46.4,32.7,21.2,35.0,27.2,19.0,95,81,57,30.71,30.49,11,0,12,0.00
2013-11-6,52.6,42.5,27.8,48.9,39.2,26.4,97,89,74,30.50,29.96,14,1,16,0.01
2013-11-7,59.0,51.8,33.6,56.6,49.3,31.9,97,92,86,29.97,29.58,15,2,18,0.28
2013-11-8,45.6,37.8,31.8,34.2,28.7,25.0,97,70,49,29.86,29.67,21,3,21,0.00
2013-11-9,43.1,35.3,24.9,26.5,24.3,22.3,91,66,47,30.09,29.86,21,4,23,0.00
2013-11-10,45.4,36.1,25.3,43.9,34.5,23.0,98,94,87,30.07,29.65,12,0,14,0.06
2013-11-11,43.1,36.4,31.4,35.6,32.8,29.8,98,87,68,29.94,29.66,19,2,21,0.00
2013-11-12,44.3,33.4,27.2,39.1,24.1,16.0,98,69,58,30.00,29.78,19,4,19,0.02
2013-11-13,36.1,27.9,21.8,17.3,15.2,13.0,78,60,39,30.12,29.99,20,4,24,0.00
2013-11-14,46.4,33.6,19.6,30.9,25.0,16.0,92,72,48,30.06,29.92,11,1,15,0.00
2013-11-15,54.6,34.2,24.2,40.4,28.0,22.7,96,81,38,30.16,30.04,9,0,13,0.00
2013-11-16,50.3,35.0,26.0,43.6,31.9,24.5,97,89,74,30.33,30.16,4,0,6,0.00
2013-11-17,49.0,42.5,30.5,47.4,41.0,29.6,99,95,86,30.36,30.01,9,1,12,0.04
2013-11-18,57.9,50.6,37.4,57.0,49.7,36.6,99,97,91,30.01,29.45,26,3,29,0.40
2013-11-19,40.1,35.7,31.7,36.8,26.0,20.0,99,69,48,30.06,29.52,21,4,28,0.00
2013-11-20,37.9,31.4,26.1,20.5,10.5,3.1,62,43,24,30.56,30.06,30,6,30,0.00
2013-11-21,51.9,32.8,20.7,31.8,17.6,8.7,88,58,18,30.57,30.31,13,1,13,0.00
2013-11-22,45.5,33.2,24.1,30.9,26.0,16.8,95,78,33,30.31,29.74,9,0,12,0.00
2013-11-23,40.0,33.8,27.8,35.9,23.9,16.2,98,69,44,29.74,29.57,30,5,35,0.03
2013-11-24,27.9,22.6,19.7,18.3,9.4,6.2,67,56,49,29.82,29.54,30,9,38,0.00
2013-11-25,28.9,20.3,15.0,13.0,4.4,-0.3,81,51,29,30.28,29.82,24,5,26,0.00
2013-11-26,35.1,29.2,18.8,31.6,24.3,12.9,96,82,61,30.30,30.18,7,0,10,0.02
2013-11-27,57.1,49.0,32.6,56.5,48.2,31.6,99,97,92,30.20,29.09,37,6,39,0.07
2013-11-28,43.9,31.3,20.1,42.2,22.5,9.0,94,71,46,30.31,29.17,21,5,23,0.00
2013-11-29,26.1,19.4,13.8,10.8,9.5,6.7,83,66,47,30.68,30.30,17,3,18,0.00
2013-11-30,30.1,18.5,10.5,19.2,11.8,8.0,91,76,44,30.77,30.43,7,1,12,0.00
2013-12-1,34.5,29.6,23.0,33.7,28.2,19.7,97,95,87,30.42,30.25,1,0,4,0.02
2013-12-4,43.2,36.5,27.0,32.5,29.7,24.8,92,77,65,30.17,29.89,22,4,23,0.00
2013-12-5,49.4,35.6,22.6,48.8,33.9,21.4,98,94,86,30.28,29.90,15,1,15,0.00
2013-12-6,50.3,43.8,36.4,50.0,41.8,28.8,99,93,72,30.04,29.81,14,1,14,0.00
2013-12-7,37.0,31.7,23.6,30.9,19.3,10.2,95,61,42,30.32,30.01,20,4,22,0.00
2013-12-8,26.4,21.5,13.9,13.3,9.1,6.1,85,60,42,30.58,30.31,21,3,28,0.00
2013-12-9,32.5,24.2,18.1,31.7,18.8,7.7,97,80,58,30.55,29.78,12,1,13,0.00
2013-12-10,34.2,28.7,20.0,33.0,25.7,13.2,97,89,72,29.82,29.68,13,1,16,0.02
2013-12-11,30.1,19.7,7.0,17.8,13.1,4.5,93,76,55,30.06,29.81,15,1,18,0.02
2013-12-12,19.4,10.1,1.2,11.6,0.8,-4.8,87,66,43,30.19,29.97,18,3,22,0.00
2013-12-13,23.5,12.7,2.7,12.0,2.5,-6.8,89,64,38,30.32,29.83,20,4,22,0.00
2013-12-14,12.9,3.8,-6.3,99.9,2.8,-99.9,79,62,39,30.60,30.32,12,2,14,0.00
2013-12-15,27.6,16.1,7.8,26.6,13.5,-3.8,96,89,57,30.47,29.29,24,5,27,0.00
2013-12-16,22.7,14.3,2.7,15.8,7.7,-5.1,92,75,52,30.13,29.58,20,4,27,0.01
2013-12-17,16.2,5.9,-10.6,99.9,28.7,-6.5,91,73,56,30.30,30.06,14,2,18,0.00
2013-12-18,23.3,17.1,3.5,19.7,14.5,0.5,93,89,83,30.07,29.74,16,3,20,0.00
2013-12-19,31.6,22.9,0.7,27.6,19.8,-1.9,97,88,81,30.06,29.89,8,0,9,0.00
2013-12-20,33.8,29.1,23.2,32.6,27.6,20.8,97,94,88,30.15,29.90,9,1,11,0.00
2013-12-21,33.1,28.0,22.3,32.3,26.9,20.9,97,96,94,29.96,29.81,11,1,12,0.00
2013-12-22,31.8,29.7,27.9,30.8,28.6,26.9,96,96,94,30.08,29.84,9,0,13,0.00
2013-12-23,32.7,29.7,27.7,32.2,28.9,26.7,98,97,96,30.11,29.99,0,0,0,0.00
2013-12-24,32.6,29.0,24.3,32.1,27.3,21.5,98,93,89,30.10,29.99,0,0,0,0.00
2013-12-26,27.6,25.0,22.0,26.6,23.8,20.3,97,95,93,30.18,30.00,0,0,0,0.00
2013-12-27,30.3,20.9,9.2,26.0,18.7,6.9,100,91,83,30.15,30.01,0,0,0,0.00
2013-12-28,36.2,23.6,5.9,33.8,22.0,3.7,98,93,90,30.14,29.88,5,0,7,0.01
2013-12-29,33.2,31.3,26.2,32.4,30.5,24.8,98,97,95,30.04,29.50,12,0,13,0.00
2013-12-30,27.6,19.3,2.7,25.0,16.8,-1.0,96,90,81,30.12,29.42,0,0,0,0.00
2013-12-31,9.6,1.0,-7.1,99.9,46.9,-3.3,89,83,70,30.17,30.02,5,0,5,0.00
2014-1-1,18.5,3.2,-11.5,99.9,44.2,-4.5,90,81,70,30.42,30.08,14,1,15,0.00
2014-1-2,-0.7,-5.8,-9.1,99.9,99.4,37.7,83,78,71,30.49,30.01,19,5,23,0.00